Time;durP1;ratioP1;P1;durP2;ratioP2;P2;SDS_P1;SDS_P2;PMS_P1;PMS_P2;Temp;Humidity;BMP_temperature;BMP_pressure;BME280_temperature;BME280_humidity;BME280_pressure;Samples;Min_cycle;Max_cycle;Signal;HPM_P1;HPM_P2
2022/08/30 00:01:12;;;;;;;1.52;1.00;;;;;;;13.09;93.94;102125.00;4984285;28;20182;-51
2022/08/30 00:03:44;;;;;;;1.75;0.90;;;;;;;13.04;94.21;102125.13;4971722;28;20189;-52
2022/08/30 00:06:10;;;;;;;1.35;0.90;;;;;;;12.98;94.29;102117.22;4977738;28;20601;-53
2022/08/30 00:08:37;;;;;;;2.05;1.20;;;;;;;12.87;94.32;102128.28;4980997;28;20186;-50
2022/08/30 00:11:04;;;;;;;0.75;0.70;;;;;;;12.87;94.76;102125.59;4976237;28;20206;-50
2022/08/30 00:13:30;;;;;;;1.08;0.93;;;;;;;12.95;94.97;102128.97;4975231;28;20300;-51
2022/08/30 00:15:56;;;;;;;0.85;0.85;;;;;;;12.88;94.79;102127.38;4984265;28;20277;-53
2022/08/30 00:18:22;;;;;;;0.85;0.85;;;;;;;12.92;95.05;102128.16;4982107;28;20777;-49
2022/08/30 00:20:49;;;;;;;1.83;0.90;;;;;;;12.87;94.97;102124.72;4972740;28;20597;-52
2022/08/30 00:23:15;;;;;;;3.75;1.10;;;;;;;12.67;95.14;102131.50;4973971;28;20186;-51
2022/08/30 00:25:42;;;;;;;1.38;0.90;;;;;;;12.56;95.56;102126.41;4978394;28;20280;-49
2022/08/30 00:28:08;;;;;;;0.93;0.93;;;;;;;12.66;96.08;102131.53;4981799;28;20302;-50
2022/08/30 00:30:34;;;;;;;1.50;1.08;;;;;;;12.60;96.40;102129.91;4982065;28;20261;-53
2022/08/30 00:32:59;;;;;;;1.30;0.90;;;;;;;12.50;96.84;102128.38;4974411;28;20288;-50
2022/08/30 00:35:25;;;;;;;1.48;1.08;;;;;;;12.44;97.41;102132.13;4975735;28;20213;-51
2022/08/30 00:37:51;;;;;;;1.40;1.08;;;;;;;12.34;97.95;102139.50;4981221;28;20607;-52
2022/08/30 00:40:19;;;;;;;1.05;1.05;;;;;;;12.32;98.46;102146.72;4981300;28;20195;-49
2022/08/30 00:42:45;;;;;;;2.00;1.00;;;;;;;12.43;98.75;102151.84;4976493;28;20534;-51
2022/08/30 00:45:15;;;;;;;1.00;0.80;;;;;;;12.44;98.98;102142.88;4980611;28;20205;-54
2022/08/30 00:47:41;;;;;;;1.42;1.10;;;;;;;12.51;98.92;102143.59;4977116;28;20185;-45
2022/08/30 00:50:07;;;;;;;1.58;1.00;;;;;;;12.51;98.57;102141.78;4977509;28;20292;-52
2022/08/30 00:52:35;;;;;;;1.10;0.80;;;;;;;12.54;98.33;102143.50;4977124;28;20166;-53
2022/08/30 00:55:01;;;;;;;1.33;0.90;;;;;;;12.52;98.27;102145.34;4974110;28;20206;-51
2022/08/30 00:57:28;;;;;;;2.13;1.00;;;;;;;12.55;98.03;102156.91;4976987;28;20286;-50
2022/08/30 00:59:53;;;;;;;1.98;1.05;;;;;;;12.50;98.03;102145.38;4979123;28;20313;-50
2022/08/30 01:02:22;;;;;;;1.73;1.20;;;;;;;12.51;97.84;102152.53;4969068;28;20637;-50
2022/08/30 01:04:50;;;;;;;1.77;0.80;;;;;;;12.50;98.35;102157.94;4980472;28;20193;-53
2022/08/30 01:07:16;;;;;;;3.15;1.08;;;;;;;12.48;98.30;102155.28;4990509;28;20181;-52
2022/08/30 01:09:42;;;;;;;1.77;1.00;;;;;;;12.58;98.42;102155.94;4984346;28;20225;-54
2022/08/30 01:12:08;;;;;;;1.10;1.00;;;;;;;12.60;98.59;102155.91;4979514;28;20208;-51
2022/08/30 01:14:34;;;;;;;1.30;0.90;;;;;;;12.64;98.78;102158.50;4990145;28;20241;-53
2022/08/30 01:17:00;;;;;;;1.58;1.08;;;;;;;12.69;98.43;102159.25;4974329;28;20204;-49
2022/08/30 01:19:40;;;;;;;2.17;1.20;;;;;;;12.68;98.61;102149.41;4976799;28;20194;-53
2022/08/30 01:22:23;;;;;;;1.45;1.00;;;;;;;12.72;98.56;102156.47;4980671;28;20555;-49
2022/08/30 01:24:52;;;;;;;2.38;1.23;;;;;;;12.78;98.86;102161.69;4978762;28;20208;-50
2022/08/30 01:27:18;;;;;;;1.02;0.95;;;;;;;12.80;98.83;102164.34;4974698;28;20190;-52
2022/08/30 01:29:44;;;;;;;1.60;0.90;;;;;;;12.69;98.81;102169.13;4975806;28;20178;-50
2022/08/30 01:32:22;;;;;;;2.83;1.10;;;;;;;12.72;98.94;102163.66;4984387;28;20295;-48
2022/08/30 01:34:48;;;;;;;1.80;0.95;;;;;;;12.69;99.44;102156.56;4983082;28;20193;-49
2022/08/30 01:37:18;;;;;;;1.15;1.05;;;;;;;12.74;99.74;102175.25;4973162;28;20539;-49
2022/08/30 01:39:45;;;;;;;2.08;1.02;;;;;;;12.76;99.99;102166.22;4974304;28;20194;-49
2022/08/30 01:42:11;;;;;;;1.75;1.20;;;;;;;12.86;99.54;102157.94;4978541;28;20713;-52
2022/08/30 01:44:38;;;;;;;2.95;1.17;;;;;;;12.87;99.49;102162.38;4982321;28;20274;-51
2022/08/30 01:47:04;;;;;;;1.67;0.82;;;;;;;12.88;99.61;102167.72;4976520;28;20547;-51
2022/08/30 01:49:30;;;;;;;0.90;0.90;;;;;;;12.91;99.43;102169.44;4973224;28;20190;-51
2022/08/30 01:51:56;;;;;;;2.85;1.05;;;;;;;12.85;99.52;102164.22;4976256;28;20181;-50
2022/08/30 01:54:22;;;;;;;0.82;0.77;;;;;;;12.90;99.73;102168.56;4982162;28;20186;-50
2022/08/30 01:56:47;;;;;;;1.08;0.90;;;;;;;12.89;99.58;102168.59;4978495;28;20220;-52
2022/08/30 01:59:13;;;;;;;1.73;1.00;;;;;;;12.86;99.64;102166.88;4974005;28;20190;-51
2022/08/30 02:01:39;;;;;;;1.10;1.00;;;;;;;12.88;99.68;102166.81;4974301;28;20258;-50
2022/08/30 02:04:06;;;;;;;1.65;0.80;;;;;;;12.93;99.75;102164.91;4976695;28;20262;-50
2022/08/30 02:06:32;;;;;;;1.50;0.95;;;;;;;12.90;99.54;102165.88;4982119;28;20213;-52
2022/08/30 02:08:58;;;;;;;1.95;1.20;;;;;;;12.82;99.55;102159.81;4980316;28;20177;-53
2022/08/30 02:11:24;;;;;;;1.88;1.08;;;;;;;12.86;99.78;102155.25;4978279;28;20638;-51
2022/08/30 02:13:50;;;;;;;1.17;1.00;;;;;;;12.83;99.95;102160.69;4975456;28;20645;-51
2022/08/30 02:16:18;;;;;;;1.60;1.10;;;;;;;12.84;100.00;102167.84;4981971;28;20281;-49
2022/08/30 02:18:44;;;;;;;1.40;1.02;;;;;;;12.84;100.00;102162.47;4977446;28;20240;-48
2022/08/30 02:21:11;;;;;;;1.10;1.00;;;;;;;12.83;99.95;102163.38;4973536;28;20186;-51
2022/08/30 02:23:37;;;;;;;0.85;0.85;;;;;;;12.85;100.00;102157.03;4981287;28;20580;-52
2022/08/30 02:26:03;;;;;;;1.77;0.98;;;;;;;12.83;100.00;102158.00;4976257;28;20193;-53
2022/08/30 02:28:29;;;;;;;2.38;1.08;;;;;;;12.75;100.00;102158.22;4974087;28;20218;-50
2022/08/30 02:30:54;;;;;;;1.13;1.02;;;;;;;12.70;100.00;102155.66;4975908;28;20213;-54
2022/08/30 02:33:20;;;;;;;0.82;0.80;;;;;;;12.71;100.00;102153.84;4971966;28;20193;-50
2022/08/30 02:35:45;;;;;;;1.10;1.10;;;;;;;12.70;99.90;102171.78;4976122;28;20666;-51
2022/08/30 02:38:11;;;;;;;0.93;0.93;;;;;;;12.70;99.84;102154.75;4977651;28;20253;-50
2022/08/30 02:40:37;;;;;;;0.80;0.80;;;;;;;12.72;99.94;102158.28;4976783;28;20185;-52
2022/08/30 02:43:03;;;;;;;1.70;0.98;;;;;;;12.69;99.79;102151.16;4972324;28;20178;-54
2022/08/30 02:45:29;;;;;;;1.52;1.00;;;;;;;12.64;100.00;102157.56;4976495;28;20206;-50
2022/08/30 02:47:55;;;;;;;1.05;0.82;;;;;;;12.63;100.00;102162.06;4982823;28;20220;-51
2022/08/30 02:50:21;;;;;;;0.98;0.90;;;;;;;12.64;100.00;102165.63;4975041;28;20549;-51
2022/08/30 02:52:47;;;;;;;1.10;0.85;;;;;;;12.62;100.00;102154.06;4972252;28;20265;-52
2022/08/30 02:55:13;;;;;;;1.42;0.90;;;;;;;12.61;100.00;102158.53;4971988;28;20611;-50
2022/08/30 02:57:39;;;;;;;2.08;1.00;;;;;;;12.56;100.00;102152.41;4976908;28;20190;-49
2022/08/30 03:00:09;;;;;;;1.05;1.02;;;;;;;12.56;100.00;102163.16;4979116;28;20198;-50
2022/08/30 03:02:35;;;;;;;1.35;0.80;;;;;;;12.62;100.00;102157.63;4975434;28;20178;-50
2022/08/30 03:05:02;;;;;;;1.50;1.10;;;;;;;12.62;100.00;102149.56;4971654;28;20197;-49
2022/08/30 03:07:27;;;;;;;1.55;1.10;;;;;;;12.67;100.00;102154.84;4975253;28;20248;-50
2022/08/30 03:09:53;;;;;;;1.65;1.00;;;;;;;12.59;100.00;102152.31;4982257;28;20238;-51
2022/08/30 03:12:18;;;;;;;1.67;1.08;;;;;;;12.58;100.00;102164.88;4961468;28;20718;-50
2022/08/30 03:14:44;;;;;;;2.38;1.13;;;;;;;12.53;100.00;102168.63;4972363;28;20237;-52
2022/08/30 03:17:09;;;;;;;2.88;0.98;;;;;;;12.52;100.00;102164.16;4972501;28;20251;-51
2022/08/30 03:19:36;;;;;;;1.33;1.13;;;;;;;12.49;100.00;102162.44;4977149;28;20193;-51
2022/08/30 03:22:03;;;;;;;1.10;1.00;;;;;;;12.55;100.00;102158.69;4980624;28;20177;-51
2022/08/30 03:24:29;;;;;;;2.88;0.80;;;;;;;12.49;100.00;102164.25;4973842;28;20609;-49
2022/08/30 03:26:54;;;;;;;0.93;0.90;;;;;;;12.51;100.00;102152.53;4971457;28;20266;-53
2022/08/30 03:29:20;;;;;;;3.70;1.08;;;;;;;12.44;100.00;102160.78;4974682;28;20215;-50
2022/08/30 03:31:46;;;;;;;2.78;0.98;;;;;;;12.45;100.00;102162.56;4979691;28;20200;-50
2022/08/30 03:34:11;;;;;;;0.80;0.80;;;;;;;12.51;100.00;102162.41;4979068;28;20594;-50
2022/08/30 03:36:38;;;;;;;1.50;0.80;;;;;;;12.52;100.00;102161.47;4976645;28;20213;-52
2022/08/30 03:39:07;;;;;;;1.15;0.90;;;;;;;12.52;100.00;102156.97;4983266;28;20244;-52
2022/08/30 03:41:33;;;;;;;1.20;1.08;;;;;;;12.58;100.00;102166.69;4981144;28;20273;-49
2022/08/30 03:44:00;;;;;;;2.25;0.90;;;;;;;12.62;100.00;102168.41;4984084;28;20221;-52
2022/08/30 03:46:26;;;;;;;1.08;0.90;;;;;;;12.62;100.00;102163.03;4981313;28;20216;-52
2022/08/30 03:48:54;;;;;;;0.98;0.98;;;;;;;12.57;100.00;102171.19;4975496;28;20271;-51
2022/08/30 03:51:21;;;;;;;0.80;0.80;;;;;;;12.61;100.00;102161.22;4978576;28;20186;-50
2022/08/30 03:53:46;;;;;;;1.23;1.17;;;;;;;12.59;100.00;102163.06;4983474;28;20272;-49
2022/08/30 03:56:12;;;;;;;1.13;0.98;;;;;;;12.57;100.00;102170.28;4980029;28;20681;-51
2022/08/30 03:58:39;;;;;;;0.88;0.82;;;;;;;12.51;100.00;102171.34;4975839;28;20190;-52
2022/08/30 04:01:05;;;;;;;1.55;1.00;;;;;;;12.49;100.00;102162.44;4982477;28;20236;-51
2022/08/30 04:03:31;;;;;;;1.02;0.95;;;;;;;12.51;100.00;102162.41;4984466;28;20174;-51
2022/08/30 04:05:57;;;;;;;1.30;1.25;;;;;;;12.50;100.00;102180.31;4977050;28;20249;-50
2022/08/30 04:08:24;;;;;;;1.60;0.80;;;;;;;12.52;100.00;102170.41;4976645;28;20253;-50
2022/08/30 04:10:52;;;;;;;1.27;0.93;;;;;;;12.57;100.00;102170.28;4988036;28;20217;-51
2022/08/30 04:13:18;;;;;;;1.20;0.85;;;;;;;12.52;100.00;102182.97;4980409;28;20192;-49
2022/08/30 04:15:44;;;;;;;1.13;1.10;;;;;;;12.46;100.00;102177.75;4985197;28;20701;-50
2022/08/30 04:18:09;;;;;;;1.73;1.02;;;;;;;12.47;100.00;102174.16;4979440;28;20212;-53
2022/08/30 04:20:35;;;;;;;2.05;0.90;;;;;;;12.52;100.00;102175.78;4981087;28;20240;-51
2022/08/30 04:23:01;;;;;;;0.75;0.75;;;;;;;12.57;100.00;102175.66;4983501;28;20185;-50
2022/08/30 04:25:27;;;;;;;2.30;1.20;;;;;;;12.57;100.00;102172.97;4986304;28;20202;-52
2022/08/30 04:27:52;;;;;;;1.58;1.00;;;;;;;12.62;100.00;102168.41;4986020;28;20180;-48
2022/08/30 04:30:18;;;;;;;1.13;0.95;;;;;;;12.64;100.00;102169.25;4982955;28;20224;-50
2022/08/30 04:32:44;;;;;;;1.30;1.20;;;;;;;12.59;100.00;102171.13;4974798;28;20610;-48
2022/08/30 04:35:11;;;;;;;1.02;1.02;;;;;;;12.64;100.00;102171.03;4979296;28;20214;-49
2022/08/30 04:37:38;;;;;;;1.65;1.30;;;;;;;12.55;100.00;102183.81;4982563;28;20224;-54
2022/08/30 04:40:04;;;;;;;1.52;1.17;;;;;;;12.47;100.00;102179.53;4978765;28;20193;-50
2022/08/30 04:42:32;;;;;;;1.27;0.95;;;;;;;12.49;100.00;102177.69;4980811;28;20178;-49
2022/08/30 04:45:01;;;;;;;1.77;1.30;;;;;;;12.54;100.00;102191.88;4974753;28;20714;-49
2022/08/30 04:47:27;;;;;;;0.85;0.85;;;;;;;12.52;100.00;102185.66;4974146;28;20189;-49
2022/08/30 04:49:53;;;;;;;0.80;0.80;;;;;;;12.52;100.00;102186.53;4989578;28;20645;-50
2022/08/30 04:52:18;;;;;;;0.70;0.70;;;;;;;12.60;100.00;102182.81;4980781;28;20268;-50
2022/08/30 04:54:44;;;;;;;0.95;0.95;;;;;;;12.60;100.00;102183.69;4969869;28;20248;-53
2022/08/30 04:57:10;;;;;;;1.20;1.00;;;;;;;12.57;100.00;102186.44;4984089;28;20190;-51
2022/08/30 04:59:38;;;;;;;2.45;0.93;;;;;;;12.62;100.00;102187.22;4981656;28;20642;-49
2022/08/30 05:02:04;;;;;;;2.75;1.05;;;;;;;12.53;100.00;102196.41;4984596;28;20185;-50
2022/08/30 05:04:29;;;;;;;1.55;1.10;;;;;;;12.66;100.00;102199.66;4977185;28;20182;-49
2022/08/30 05:06:55;;;;;;;1.92;1.10;;;;;;;12.68;100.00;102195.13;4973729;28;20193;-49
2022/08/30 05:09:21;;;;;;;2.38;1.45;;;;;;;12.68;100.00;102191.53;4987892;28;20272;-50
2022/08/30 05:11:46;;;;;;;0.98;0.98;;;;;;;12.75;100.00;102195.88;4979898;28;20181;-52
2022/08/30 05:14:12;;;;;;;1.02;1.00;;;;;;;12.75;100.00;102199.44;4977840;28;20178;-48
2022/08/30 05:16:38;;;;;;;1.70;1.00;;;;;;;12.69;100.00;102199.56;4988181;28;20235;-47
2022/08/30 05:19:04;;;;;;;2.55;1.08;;;;;;;12.77;100.00;102196.72;4987464;28;20174;-49
2022/08/30 05:21:30;;;;;;;1.50;0.88;;;;;;;12.83;100.00;102206.41;4989197;28;20181;-47
2022/08/30 05:23:58;;;;;;;1.27;1.10;;;;;;;12.89;100.00;102211.63;4984170;28;20193;-52
2022/08/30 05:26:32;;;;;;;1.85;1.05;;;;;;;12.90;100.00;102208.91;4976690;28;20625;-46
2022/08/30 05:28:59;;;;;;;2.15;1.17;;;;;;;12.87;100.00;102210.78;4983778;28;20201;-47
2022/08/30 05:31:27;;;;;;;1.10;1.00;;;;;;;12.93;100.00;102208.81;4982092;28;20221;-45
2022/08/30 05:33:54;;;;;;;1.30;1.20;;;;;;;12.97;100.00;102196.19;4976575;28;20170;-49
2022/08/30 05:36:22;;;;;;;2.40;1.02;;;;;;;13.05;100.00;102204.91;4982134;28;20682;-45
2022/08/30 05:38:48;;;;;;;2.88;1.10;;;;;;;13.06;100.00;102211.22;4989304;28;20256;-50
2022/08/30 05:41:14;;;;;;;1.50;1.00;;;;;;;13.17;100.00;102214.50;4988564;28;20177;-49
2022/08/30 05:43:40;;;;;;;1.27;1.08;;;;;;;13.24;100.00;102204.44;4987831;28;20181;-47
2022/08/30 05:46:10;;;;;;;1.40;1.20;;;;;;;13.30;100.00;102210.56;4980880;28;20284;-50
2022/08/30 05:48:36;;;;;;;2.95;1.30;;;;;;;13.33;100.00;102213.16;4980000;28;20641;-50
2022/08/30 05:51:10;;;;;;;2.47;1.38;;;;;;;13.33;100.00;102207.78;4985211;28;20277;-46
2022/08/30 05:53:36;;;;;;;1.75;1.13;;;;;;;13.43;100.00;102210.25;4973008;28;20257;-46
2022/08/30 05:56:05;;;;;;;1.90;1.13;;;;;;;13.50;100.00;102207.31;4982130;28;20201;-48
2022/08/30 05:58:31;;;;;;;1.75;1.00;;;;;;;13.53;100.00;102215.28;4979127;28;20205;-47
2022/08/30 06:00:57;;;;;;;1.65;1.20;;;;;;;13.65;100.00;102215.91;4981750;28;20190;-47
2022/08/30 06:03:23;;;;;;;2.38;1.30;;;;;;;13.76;100.00;102213.78;4979420;28;20173;-46
2022/08/30 06:05:48;;;;;;;2.47;1.00;;;;;;;13.88;100.00;102215.22;4986776;28;20201;-46
2022/08/30 06:08:19;;;;;;;2.00;1.05;;;;;;;14.01;100.00;102224.69;4982733;28;20181;-49
2022/08/30 06:10:44;;;;;;;1.55;1.20;;;;;;;14.11;100.00;102217.22;4991440;28;20173;-50
2022/08/30 06:13:11;;;;;;;1.85;1.10;;;;;;;14.26;100.00;102214.03;4982804;28;20189;-46
2022/08/30 06:15:37;;;;;;;0.95;0.90;;;;;;;14.42;100.00;102226.09;4979717;28;20288;-47
2022/08/30 06:18:03;;;;;;;2.33;1.20;;;;;;;14.54;100.00;102219.44;4978286;28;20280;-46
2022/08/30 06:20:28;;;;;;;1.10;1.00;;;;;;;14.74;100.00;102221.50;4981202;28;20197;-46
2022/08/30 06:22:54;;;;;;;1.73;1.20;;;;;;;14.98;100.00;102214.41;4981727;28;20734;-45
2022/08/30 06:25:20;;;;;;;1.45;1.10;;;;;;;15.47;100.00;102217.16;4982833;28;20299;-46
2022/08/30 06:27:45;;;;;;;1.75;1.00;;;;;;;15.90;100.00;102215.59;4987847;28;20214;-46
2022/08/30 06:30:11;;;;;;;1.25;0.95;;;;;;;16.46;99.83;102212.47;4989203;28;20181;-50
2022/08/30 06:32:38;;;;;;;1.40;0.90;;;;;;;17.07;94.70;102210.84;4983098;28;20244;-50
2022/08/30 06:35:05;;;;;;;2.22;1.00;;;;;;;17.61;90.88;102213.88;4979772;28;20578;-48
2022/08/30 06:37:31;;;;;;;1.80;1.15;;;;;;;17.95;86.84;102212.34;4979314;28;20202;-45
2022/08/30 06:39:58;;;;;;;1.63;1.10;;;;;;;18.43;83.03;102217.25;4976727;28;20674;-45
2022/08/30 06:42:29;;;;;;;3.35;1.08;;;;;;;18.56;80.56;102224.78;4983929;28;20578;-48
2022/08/30 06:44:54;;;;;;;4.82;1.38;;;;;;;18.47;80.27;102217.97;4978105;28;20252;-45
2022/08/30 06:47:20;;;;;;;1.38;0.98;;;;;;;18.24;79.42;102219.09;4979541;28;20570;-49
2022/08/30 06:49:45;;;;;;;2.33;1.00;;;;;;;18.16;79.54;102219.47;4978196;28;20173;-49
2022/08/30 06:52:11;;;;;;;1.90;1.00;;;;;;;17.99;80.49;102222.97;4978693;28;20534;-45
2022/08/30 06:54:37;;;;;;;3.33;1.13;;;;;;;17.79;80.00;102220.28;4980248;28;20333;-44
2022/08/30 06:57:03;;;;;;;2.70;0.90;;;;;;;17.55;80.35;102234.00;4980210;28;20248;-47
2022/08/30 06:59:28;;;;;;;1.58;1.00;;;;;;;17.52;80.12;102219.72;4984018;28;20193;-47
2022/08/30 07:01:55;;;;;;;0.98;0.90;;;;;;;17.45;80.41;102229.97;4979234;28;20183;-48
2022/08/30 07:04:20;;;;;;;1.08;0.95;;;;;;;17.23;82.18;102221.88;4982773;28;20183;-49
2022/08/30 07:06:46;;;;;;;2.92;0.90;;;;;;;17.35;83.15;102232.19;4979663;28;20557;-48
2022/08/30 07:09:11;;;;;;;4.25;1.08;;;;;;;17.18;83.77;102234.75;4984557;28;20466;-47
2022/08/30 07:11:37;;;;;;;1.77;1.00;;;;;;;17.03;84.78;102236.28;4981408;28;20351;-49
2022/08/30 07:14:04;;;;;;;2.28;1.17;;;;;;;17.00;85.45;102236.44;4977348;28;20537;-46
2022/08/30 07:16:30;;;;;;;2.15;0.90;;;;;;;16.91;85.72;102237.72;4981747;28;20300;-47
2022/08/30 07:18:57;;;;;;;1.27;1.00;;;;;;;16.88;86.04;102244.13;4980677;28;20178;-46
2022/08/30 07:21:26;;;;;;;2.08;0.95;;;;;;;17.06;85.96;102249.72;4982212;28;20182;-50
2022/08/30 07:23:54;;;;;;;1.63;1.00;;;;;;;17.06;86.36;102247.00;4981896;28;20202;-47
2022/08/30 07:26:23;;;;;;;1.23;0.90;;;;;;;17.26;86.16;102246.16;4975504;28;20229;-45
2022/08/30 07:28:50;;;;;;;3.35;1.08;;;;;;;17.33;85.71;102246.75;4980085;28;20182;-52
2022/08/30 07:31:17;;;;;;;1.40;0.95;;;;;;;17.45;85.32;102248.94;4984128;28;20203;-47
2022/08/30 07:33:43;;;;;;;2.83;1.17;;;;;;;17.48;85.17;102260.50;4974912;28;20186;-50
2022/08/30 07:36:09;;;;;;;2.35;0.90;;;;;;;17.46;85.01;102267.81;4979535;28;20205;-46
2022/08/30 07:38:35;;;;;;;1.23;1.00;;;;;;;17.29;84.42;102265.88;4977922;28;20189;-51
2022/08/30 07:41:01;;;;;;;2.60;0.90;;;;;;;17.34;84.13;102259.34;4979959;28;20185;-45
2022/08/30 07:43:28;;;;;;;1.80;0.93;;;;;;;17.46;83.29;102261.53;4982669;28;20358;-48
2022/08/30 07:45:53;;;;;;;2.90;1.10;;;;;;;17.47;82.71;102263.25;4975094;28;20213;-46
2022/08/30 07:48:19;;;;;;;3.28;0.90;;;;;;;17.47;81.96;102263.25;4973503;28;20200;-48
2022/08/30 07:50:45;;;;;;;1.65;0.80;;;;;;;17.49;81.02;102261.38;4977837;28;20687;-48
2022/08/30 07:53:11;;;;;;;1.48;1.05;;;;;;;17.64;80.93;102263.41;4980965;28;20182;-49
2022/08/30 07:55:38;;;;;;;3.03;1.13;;;;;;;17.78;80.39;102270.06;4973762;28;20209;-48
2022/08/30 07:58:04;;;;;;;1.27;0.80;;;;;;;17.90;79.38;102267.66;4977352;28;20198;-45
2022/08/30 08:00:29;;;;;;;1.90;0.80;;;;;;;17.98;79.60;102267.31;4990776;28;20675;-48
2022/08/30 08:02:55;;;;;;;2.10;1.20;;;;;;;17.75;77.93;102272.88;4987325;28;20200;-46
2022/08/30 08:05:20;;;;;;;1.23;0.70;;;;;;;18.00;77.34;102278.13;4983511;28;20205;-50
2022/08/30 08:07:46;;;;;;;1.05;0.80;;;;;;;17.73;76.45;102281.06;4971008;28;20163;-47
2022/08/30 08:10:12;;;;;;;1.13;1.00;;;;;;;17.91;77.02;102288.41;4976903;28;20201;-47
2022/08/30 08:12:38;;;;;;;1.67;0.98;;;;;;;17.97;76.97;102289.94;4965477;28;20549;-47
2022/08/30 08:15:05;;;;;;;0.93;0.70;;;;;;;17.90;75.70;102291.19;4972661;28;20210;-45
2022/08/30 08:17:30;;;;;;;0.82;0.82;;;;;;;18.14;75.20;102289.19;4988592;28;20193;-45
2022/08/30 08:19:56;;;;;;;1.63;0.80;;;;;;;18.01;74.03;102286.16;4987432;28;20281;-46
2022/08/30 08:22:21;;;;;;;0.63;0.60;;;;;;;18.08;72.42;102287.66;4974662;28;20261;-46
2022/08/30 08:24:48;;;;;;;4.28;0.80;;;;;;;18.15;70.20;102296.38;4976556;28;20737;-48
2022/08/30 08:27:13;;;;;;;0.95;0.70;;;;;;;18.24;68.93;102300.50;4990724;28;20174;-47
2022/08/30 08:29:39;;;;;;;4.95;0.90;;;;;;;18.24;68.71;102308.63;4987455;28;20276;-51
2022/08/30 08:32:05;;;;;;;0.90;0.70;;;;;;;18.25;69.51;102297.69;4967718;28;20188;-48
2022/08/30 08:34:31;;;;;;;1.55;0.65;;;;;;;18.29;68.92;102299.31;4977234;28;20273;-46
2022/08/30 08:36:56;;;;;;;1.17;0.80;;;;;;;18.22;68.50;102296.97;4974258;28;20186;-45
2022/08/30 08:39:22;;;;;;;1.63;0.80;;;;;;;18.22;69.43;102295.13;4972107;28;20182;-46
2022/08/30 08:41:53;;;;;;;2.20;0.90;;;;;;;18.07;69.52;102307.56;4976689;28;20700;-48
2022/08/30 08:44:38;;;;;;;3.38;0.80;;;;;;;17.89;70.67;102312.00;4979598;28;20201;-49
2022/08/30 08:47:21;;;;;;;1.25;0.80;;;;;;;18.16;70.25;102316.25;4982504;28;20258;-48
2022/08/30 08:49:51;;;;;;;1.15;0.70;;;;;;;18.08;70.20;102313.88;4983848;28;20263;-49
2022/08/30 08:55:14;;;;;;;1.45;0.70;;;;;;;17.96;71.46;102331.59;4984857;28;20218;-48
2022/08/30 08:57:40;;;;;;;2.58;0.90;;;;;;;17.82;72.47;102318.66;4980229;28;20668;-50
2022/08/30 09:00:09;;;;;;;0.98;0.70;;;;;;;17.90;72.16;102318.31;4985824;28;20225;-47
2022/08/30 09:02:46;;;;;;;1.38;0.70;;;;;;;17.95;72.29;102324.44;4979653;28;20232;-54
2022/08/30 09:05:17;;;;;;;3.00;0.93;;;;;;;18.14;72.08;102320.84;4990571;28;20201;-49
2022/08/30 09:07:48;;;;;;;1.35;0.70;;;;;;;18.05;71.68;102333.00;4982329;28;20553;-49
2022/08/30 09:10:14;;;;;;;2.88;0.80;;;;;;;18.15;71.86;102336.16;4978059;28;20181;-48
2022/08/30 09:12:40;;;;;;;0.98;0.85;;;;;;;18.08;72.03;102328.34;4980123;28;20655;-51
2022/08/30 09:15:19;;;;;;;0.70;0.68;;;;;;;17.71;71.50;102339.94;4984562;28;20258;-50
2022/08/30 09:18:07;;;;;;;1.08;0.73;;;;;;;17.62;70.06;102332.19;4980767;28;20216;-49
2022/08/30 09:20:37;;;;;;;0.70;0.70;;;;;;;17.84;70.08;102332.13;4983722;28;20197;-53
2022/08/30 09:23:14;;;;;;;1.70;0.75;;;;;;;17.76;69.88;102332.47;4986081;28;20185;-47
2022/08/30 09:25:57;;;;;;;1.23;0.70;;;;;;;18.13;70.12;102330.84;4973923;28;20217;-46
2022/08/30 09:28:28;;;;;;;1.42;0.80;;;;;;;17.86;67.68;102324.81;4977848;28;20182;-49
2022/08/30 09:31:16;;;;;;;1.27;0.82;;;;;;;17.92;66.59;102328.13;4981334;28;20182;-49
2022/08/30 09:33:53;;;;;;;1.13;0.80;;;;;;;18.07;64.75;102329.28;4974244;28;20197;-49
2022/08/30 09:36:25;;;;;;;1.52;0.60;;;;;;;17.84;65.02;102324.91;4978895;28;20273;-48
2022/08/30 09:39:02;;;;;;;2.78;0.80;;;;;;;17.85;66.26;102323.94;4980235;28;20209;-48
2022/08/30 09:41:49;;;;;;;1.08;0.60;;;;;;;18.01;66.50;102332.25;4983197;28;20284;-51
2022/08/30 09:44:14;;;;;;;3.25;0.82;;;;;;;18.23;66.36;102325.84;4978311;28;20696;-49
2022/08/30 09:46:52;;;;;;;1.90;0.90;;;;;;;18.33;65.57;102319.91;4974342;28;20205;-50
2022/08/30 09:49:27;;;;;;;0.60;0.60;;;;;;;18.75;64.86;102331.50;4985145;28;20222;-51
2022/08/30 09:52:16;;;;;;;1.42;0.70;;;;;;;18.45;66.20;102331.16;4982284;28;20180;-46
2022/08/30 09:55:23;;;;;;;1.83;0.90;;;;;;;18.37;66.49;102331.53;4978271;28;20221;-46
2022/08/30 09:58:26;;;;;;;0.57;0.57;;;;;;;18.57;65.25;102330.56;4973982;28;20224;-48
2022/08/30 10:01:03;;;;;;;3.05;0.80;;;;;;;18.37;65.93;102325.22;4967997;28;20213;-52
2022/08/30 10:03:40;;;;;;;2.08;0.80;;;;;;;18.68;65.16;102330.06;4979622;28;20192;-52
2022/08/30 10:06:30;;;;;;;0.88;0.60;;;;;;;18.89;64.70;102318.19;4977270;28;20214;-49
2022/08/30 10:09:19;;;;;;;2.40;1.10;;;;;;;19.03;65.03;102324.75;4982039;28;20177;-48
2022/08/30 10:11:59;;;;;;;3.15;1.00;;;;;;;19.54;61.64;102326.63;4980242;28;20185;-53
2022/08/30 10:14:34;;;;;;;1.10;0.80;;;;;;;19.95;60.27;102320.88;4980532;28;20240;-50
2022/08/30 10:17:37;;;;;;;1.23;0.70;;;;;;;20.22;58.80;102323.03;4976617;28;20528;-49
2022/08/30 10:20:11;;;;;;;3.72;0.88;;;;;;;19.91;58.65;102315.69;4986600;28;20211;-50
2022/08/30 10:22:42;;;;;;;0.90;0.65;;;;;;;19.79;59.26;102327.22;4978457;28;20228;-50
2022/08/30 10:25:20;;;;;;;1.58;0.80;;;;;;;20.00;58.69;102320.63;4976564;28;20212;-48
2022/08/30 10:28:04;;;;;;;1.70;0.52;;;;;;;20.19;59.45;102315.06;4974061;28;20190;-50
2022/08/30 10:30:35;;;;;;;0.75;0.75;;;;;;;20.67;58.28;102320.59;4980707;28;20189;-48
2022/08/30 10:33:13;;;;;;;0.63;0.60;;;;;;;21.29;56.16;102315.16;4981499;28;20191;-48
2022/08/30 10:35:45;;;;;;;0.77;0.63;;;;;;;21.57;53.95;102314.41;4978072;28;20424;-48
2022/08/30 10:38:16;;;;;;;3.20;0.63;;;;;;;20.24;55.02;102326.56;4982878;28;20563;-49
2022/08/30 10:43:40;;;;;;;0.88;0.70;;;;;;;20.51;54.04;102310.56;4973352;28;20256;-49
2022/08/30 10:46:17;;;;;;;1.00;0.65;;;;;;;19.75;53.83;102316.50;4982072;28;20219;-49
2022/08/30 10:48:43;;;;;;;1.67;0.77;;;;;;;19.63;54.06;102314.41;4978954;28;20335;-50
2022/08/30 10:51:15;;;;;;;0.80;0.52;;;;;;;20.08;53.20;102320.22;4984391;28;20629;-50
2022/08/30 10:53:49;;;;;;;1.15;0.73;;;;;;;19.59;53.54;102325.50;4980115;28;20530;-49
2022/08/30 10:56:20;;;;;;;2.00;0.60;;;;;;;19.08;54.14;102336.25;4979498;28;20215;-49
2022/08/30 10:58:46;;;;;;;1.08;0.55;;;;;;;18.73;53.64;102328.00;4975582;28;20206;-49
2022/08/30 11:01:49;;;;;;;0.93;0.50;;;;;;;18.87;52.94;102332.78;4977123;28;20583;-51
2022/08/30 11:04:33;;;;;;;0.93;0.30;;;;;;;19.10;51.84;102334.34;4977079;28;20608;-49
2022/08/30 11:07:28;;;;;;;0.95;0.40;;;;;;;19.02;47.12;102333.84;4981133;28;20185;-49
2022/08/30 11:10:25;;;;;;;0.20;0.20;;;;;;;19.16;47.51;102333.19;4988675;28;20190;-50
2022/08/30 11:13:00;;;;;;;1.27;0.40;;;;;;;19.43;48.27;102329.03;4971543;28;20190;-47
2022/08/30 11:15:30;;;;;;;0.20;0.10;;;;;;;19.56;48.05;102321.13;4979995;28;20316;-48
2022/08/30 11:18:03;;;;;;;0.10;0.10;;;;;;;19.09;46.66;102338.91;4978951;28;20212;-50
2022/08/30 11:20:36;;;;;;;0.55;0.20;;;;;;;19.62;47.39;102328.09;4974508;28;20206;-49
2022/08/30 11:23:23;;;;;;;0.30;0.30;;;;;;;19.42;48.25;102321.84;4982670;28;20211;-48
2022/08/30 11:25:54;;;;;;;0.40;0.40;;;;;;;19.54;47.07;102331.19;4979882;28;20727;-51
2022/08/30 11:28:34;;;;;;;0.95;0.30;;;;;;;19.63;46.87;102329.84;4981104;28;20569;-50
2022/08/30 11:31:07;;;;;;;0.20;0.20;;;;;;;19.90;47.36;102319.38;4985880;28;20197;-49
2022/08/30 11:33:46;;;;;;;1.00;0.63;;;;;;;20.79;47.15;102314.44;4967581;28;20256;-47
2022/08/30 11:36:34;;;;;;;0.38;0.38;;;;;;;19.84;45.79;102311.56;4976428;28;20213;-47